Time;durP1;ratioP1;P1;durP2;ratioP2;P2;SDS_P1;SDS_P2;PMS_P1;PMS_P2;Temp;Humidity;BMP_temperature;BMP_pressure;BME280_temperature;BME280_humidity;BME280_pressure;Samples;Min_cycle;Max_cycle;Signal;HPM_P1;HPM_P2
2023/02/24 00:01:58;;;;;;;10.25;7.60;;;;;;;;;;6165269;23;20590;-89
2023/02/24 00:04:27;;;;;;;8.85;6.53;;;;;;;;;;6163512;23;20024;-89
2023/02/24 00:06:54;;;;;;;12.80;7.28;;;;;;;;;;6190194;23;20020;-88
2023/02/24 00:09:25;;;;;;;9.65;6.85;;;;;;;;;;6191373;23;20368;-90
2023/02/24 00:11:56;;;;;;;8.20;6.90;;;;;;;;;;6165494;23;20363;-89
2023/02/24 00:14:27;;;;;;;8.93;6.50;;;;;;;;;;6164139;23;20021;-90
2023/02/24 00:16:57;;;;;;;7.47;6.53;;;;;;;;;;6189393;23;20029;-92
2023/02/24 00:19:28;;;;;;;7.63;6.40;;;;;;;;;;6189357;23;20023;-91
2023/02/24 00:21:55;;;;;;;6.78;6.05;;;;;;;;;;6189557;23;20622;-90
2023/02/24 00:24:24;;;;;;;9.52;7.00;;;;;;;;;;6163829;23;20024;-89
2023/02/24 00:26:54;;;;;;;8.10;7.20;;;;;;;;;;6164546;23;20017;-90
2023/02/24 00:29:28;;;;;;;8.23;7.15;;;;;;;;;;6172953;23;20027;-90
2023/02/24 00:31:58;;;;;;;7.30;6.45;;;;;;;;;;6191089;23;20024;-89
2023/02/24 00:34:26;;;;;;;10.52;6.65;;;;;;;;;;6165836;23;20013;-90
2023/02/24 00:37:00;;;;;;;9.48;7.35;;;;;;;;;;6164562;23;20869;-89
2023/02/24 00:39:32;;;;;;;10.40;7.55;;;;;;;;;;6164960;23;20024;-91
2023/02/24 00:42:04;;;;;;;6.72;6.03;;;;;;;;;;6163955;23;20020;-89
2023/02/24 00:44:37;;;;;;;6.25;5.65;;;;;;;;;;6165665;23;20027;-89
2023/02/24 00:47:06;;;;;;;10.57;7.38;;;;;;;;;;6186520;23;20490;-89
2023/02/24 00:49:40;;;;;;;8.80;7.25;;;;;;;;;;6190199;23;20027;-90
2023/02/24 00:52:12;;;;;;;;;;;;;;;;;;6166593;23;20028;-90
2023/02/24 00:54:39;;;;;;;9.35;5.93;;;;;;;;;;6188399;23;19915;-89
2023/02/24 00:57:10;;;;;;;11.32;7.05;;;;;;;;;;6188781;23;20024;-89
2023/02/24 00:59:39;;;;;;;9.10;6.60;;;;;;;;;;6161309;23;20028;-88
2023/02/24 01:02:07;;;;;;;11.48;7.22;;;;;;;;;;6198107;23;20040;-88
2023/02/24 01:04:36;;;;;;;9.65;7.07;;;;;;;;;;6163242;23;20024;-88
2023/02/24 01:07:09;;;;;;;10.88;7.15;;;;;;;;;;6162358;23;20356;-91
2023/02/24 01:09:37;;;;;;;;;;;;;;;;;;6163735;23;20020;-89
2023/02/24 01:14:54;;;;;;;7.53;5.65;;;;;;;;;;6186440;23;20013;-91
2023/02/24 01:17:22;;;;;;;10.32;7.05;;;;;;;;;;6186586;23;20021;-91
2023/02/24 01:19:50;;;;;;;7.88;6.47;;;;;;;;;;6163089;23;20032;-90
2023/02/24 01:22:19;;;;;;;9.02;7.30;;;;;;;;;;6187835;23;20016;-89
2023/02/24 01:24:47;;;;;;;11.23;7.50;;;;;;;;;;6161144;23;20028;-87
2023/02/24 01:27:18;;;;;;;10.88;8.38;;;;;;;;;;6186721;23;20016;-88
2023/02/24 01:29:46;;;;;;;9.40;7.20;;;;;;;;;;6163459;23;20016;-89
2023/02/24 01:32:18;;;;;;;9.18;6.72;;;;;;;;;;6188941;23;20015;-91
2023/02/24 01:34:46;;;;;;;9.68;8.38;;;;;;;;;;6187024;23;20013;-91
2023/02/24 01:37:15;;;;;;;11.32;7.90;;;;;;;;;;6162097;23;20017;-88
2023/02/24 01:39:43;;;;;;;11.52;8.68;;;;;;;;;;6162013;23;20017;-88
2023/02/24 01:42:18;;;;;;;9.35;7.32;;;;;;;;;;6162627;23;20554;-88
2023/02/24 01:45:17;;;;;;;8.48;7.60;;;;;;;;;;6191367;23;20012;-90
2023/02/24 01:47:47;;;;;;;9.70;6.78;;;;;;;;;;6188518;23;20012;-89
2023/02/24 01:50:21;;;;;;;9.80;7.80;;;;;;;;;;6187468;23;20333;-89
2023/02/24 01:52:50;;;;;;;9.82;7.78;;;;;;;;;;6162495;23;20024;-89
2023/02/24 01:55:23;;;;;;;7.68;6.65;;;;;;;;;;6188486;23;20012;-91
2023/02/24 01:57:52;;;;;;;11.07;8.50;;;;;;;;;;6185143;23;20028;-88
2023/02/24 02:00:43;;;;;;;12.20;9.27;;;;;;;;;;6161659;23;20016;-88
2023/02/24 02:03:22;;;;;;;11.98;8.27;;;;;;;;;;6160069;23;20094;-88
2023/02/24 02:05:50;;;;;;;9.68;8.65;;;;;;;;;;6160173;23;20012;-89
2023/02/24 02:08:19;;;;;;;13.23;9.68;;;;;;;;;;6185009;23;20017;-90
2023/02/24 02:10:47;;;;;;;14.82;10.75;;;;;;;;;;6160960;23;20028;-88
2023/02/24 02:13:19;;;;;;;13.88;11.27;;;;;;;;;;6160127;23;20021;-89
2023/02/24 02:15:56;;;;;;;15.27;10.98;;;;;;;;;;6161886;23;20032;-88
2023/02/24 02:18:32;;;;;;;13.85;10.77;;;;;;;;;;6159492;23;20498;-88
2023/02/24 02:21:20;;;;;;;11.85;8.90;;;;;;;;;;6183928;23;20019;-88
2023/02/24 02:23:56;;;;;;;17.63;12.45;;;;;;;;;;6193067;23;20024;-88
2023/02/24 02:27:18;;;;;;;14.55;10.90;;;;;;;;;;6193430;23;20020;-89
2023/02/24 02:30:18;;;;;;;14.65;11.80;;;;;;;;;;6114916;23;20022;-89
2023/02/24 02:33:00;;;;;;;15.43;10.75;;;;;;;;;;6202637;23;20012;-88
2023/02/24 02:35:35;;;;;;;19.00;13.25;;;;;;;;;;6171133;23;20021;-89
2023/02/24 02:38:11;;;;;;;18.58;13.38;;;;;;;;;;6204468;23;20013;-88
2023/02/24 02:40:42;;;;;;;12.27;10.15;;;;;;;;;;6202433;23;20016;-87
2023/02/24 02:43:16;;;;;;;16.67;10.60;;;;;;;;;;6160305;23;20021;-88
2023/02/24 02:45:49;;;;;;;20.67;13.35;;;;;;;;;;6161057;23;20021;-89
2023/02/24 02:48:23;;;;;;;18.02;11.38;;;;;;;;;;6160456;23;20023;-89
2023/02/24 02:50:54;;;;;;;21.67;12.70;;;;;;;;;;6195247;23;20012;-88
2023/02/24 02:53:25;;;;;;;19.25;12.77;;;;;;;;;;6192849;23;20024;-89
2023/02/24 02:55:56;;;;;;;11.93;9.13;;;;;;;;;;6195927;23;20019;-88
2023/02/24 02:58:30;;;;;;;17.45;12.27;;;;;;;;;;6171159;23;20017;-88
2023/02/24 03:01:01;;;;;;;16.05;10.93;;;;;;;;;;6197632;23;20017;-90
2023/02/24 03:03:31;;;;;;;19.10;12.27;;;;;;;;;;6196917;23;20471;-90
2023/02/24 03:06:03;;;;;;;20.90;13.18;;;;;;;;;;6163519;23;20016;-89
2023/02/24 03:08:36;;;;;;;21.00;13.40;;;;;;;;;;6193578;23;20016;-90
2023/02/24 03:11:05;;;;;;;18.35;14.32;;;;;;;;;;6226765;23;20025;-90
2023/02/24 03:13:35;;;;;;;26.33;14.90;;;;;;;;;;6185804;23;20021;-90
2023/02/24 03:16:05;;;;;;;18.77;14.45;;;;;;;;;;6195659;23;20016;-90
2023/02/24 03:18:34;;;;;;;28.25;16.63;;;;;;;;;;6163145;23;20016;-90
2023/02/24 03:21:06;;;;;;;22.38;17.02;;;;;;;;;;6185906;23;20020;-90
2023/02/24 03:23:36;;;;;;;22.48;15.73;;;;;;;;;;6197176;23;20013;-90
2023/02/24 03:26:15;;;;;;;20.67;15.13;;;;;;;;;;6186821;23;20027;-90
2023/02/24 03:28:50;;;;;;;17.80;13.05;;;;;;;;;;6162619;23;20380;-90
2023/02/24 03:31:22;;;;;;;21.23;13.43;;;;;;;;;;6195549;23;20036;-89
2023/02/24 03:33:59;;;;;;;20.80;14.57;;;;;;;;;;6197595;23;20017;-89
2023/02/24 03:36:29;;;;;;;22.38;17.83;;;;;;;;;;6196585;23;20017;-91
2023/02/24 03:39:00;;;;;;;25.02;17.60;;;;;;;;;;6215428;23;20013;-91
2023/02/24 03:41:38;;;;;;;26.02;15.45;;;;;;;;;;6219898;23;20349;-90
2023/02/24 03:44:09;;;;;;;22.42;16.33;;;;;;;;;;6198441;23;20013;-90
2023/02/24 03:46:41;;;;;;;23.13;15.48;;;;;;;;;;6196939;23;20069;-90
2023/02/24 03:49:15;;;;;;;26.05;16.83;;;;;;;;;;6189527;23;20017;-89
2023/02/24 03:51:55;;;;;;;19.20;13.75;;;;;;;;;;6195234;23;20008;-89
2023/02/24 03:54:33;;;;;;;25.05;16.02;;;;;;;;;;6198561;23;20019;-89
2023/02/24 03:57:11;;;;;;;26.52;14.63;;;;;;;;;;6197206;23;20012;-89
2023/02/24 03:59:47;;;;;;;23.38;17.23;;;;;;;;;;6164071;23;20552;-89
2023/02/24 04:02:23;;;;;;;27.58;19.60;;;;;;;;;;6195106;23;20024;-91
2023/02/24 04:05:10;;;;;;;22.50;18.25;;;;;;;;;;6200011;23;20312;-91
2023/02/24 04:08:26;;;;;;;29.33;17.15;;;;;;;;;;6162588;23;20487;-92
2023/02/24 04:11:09;;;;;;;21.33;14.65;;;;;;;;;;6162355;23;20469;-92
2023/02/24 04:13:53;;;;;;;24.45;16.52;;;;;;;;;;6162797;23;20017;-92
2023/02/24 04:16:38;;;;;;;28.00;16.88;;;;;;;;;;6161366;23;20020;-92
2023/02/24 04:19:12;;;;;;;26.83;17.15;;;;;;;;;;6187191;23;20020;-90
2023/02/24 04:21:43;;;;;;;22.63;15.60;;;;;;;;;;6196579;23;20013;-90
2023/02/24 04:24:22;;;;;;;25.05;19.23;;;;;;;;;;6195824;23;20019;-89
2023/02/24 04:26:57;;;;;;;26.58;16.45;;;;;;;;;;6185396;23;20031;-89
2023/02/24 04:29:27;;;;;;;27.17;17.95;;;;;;;;;;6162308;23;20460;-89
2023/02/24 04:32:24;;;;;;;27.83;16.67;;;;;;;;;;6185271;23;20021;-90
2023/02/24 04:35:03;;;;;;;29.33;17.67;;;;;;;;;;6186792;23;20020;-90
2023/02/24 04:37:35;;;;;;;32.15;18.15;;;;;;;;;;6163112;23;20340;-89
2023/02/24 04:40:09;;;;;;;24.33;17.50;;;;;;;;;;6197596;23;20385;-89
2023/02/24 04:42:45;;;;;;;31.38;19.45;;;;;;;;;;6223619;23;20046;-89
2023/02/24 04:45:13;;;;;;;22.95;16.88;;;;;;;;;;6223265;23;20035;-88
2023/02/24 04:47:44;;;;;;;31.42;19.45;;;;;;;;;;6213189;23;20020;-88
2023/02/24 04:50:21;;;;;;;24.83;18.58;;;;;;;;;;6195947;23;20016;-88
2023/02/24 04:52:50;;;;;;;30.30;19.17;;;;;;;;;;6222560;23;20013;-88
2023/02/24 04:55:21;;;;;;;30.83;18.75;;;;;;;;;;6187023;23;20364;-87
2023/02/24 04:57:49;;;;;;;31.70;19.05;;;;;;;;;;6212601;23;20020;-88
2023/02/24 05:00:28;;;;;;;29.00;19.33;;;;;;;;;;6196202;23;20012;-87
2023/02/24 05:02:56;;;;;;;26.92;17.98;;;;;;;;;;6184418;23;20037;-89
2023/02/24 05:05:26;;;;;;;34.38;20.55;;;;;;;;;;6186874;23;20017;-87
2023/02/24 05:07:55;;;;;;;29.15;18.13;;;;;;;;;;6184061;23;20016;-88
2023/02/24 05:10:26;;;;;;;30.63;17.45;;;;;;;;;;6214048;23;20009;-88
2023/02/24 05:12:56;;;;;;;26.77;18.23;;;;;;;;;;6221818;23;20024;-88
2023/02/24 05:15:29;;;;;;;29.25;20.50;;;;;;;;;;6187700;23;20023;-88
2023/02/24 05:18:00;;;;;;;29.48;18.88;;;;;;;;;;6189764;23;20032;-88
2023/02/24 05:23:17;;;;;;;25.88;17.27;;;;;;;;;;6212846;23;20420;-88
2023/02/24 05:25:48;;;;;;;28.17;16.63;;;;;;;;;;6186597;23;20027;-88
2023/02/24 05:28:23;;;;;;;27.08;16.63;;;;;;;;;;6215476;23;20017;-89
2023/02/24 05:31:04;;;;;;;28.25;17.65;;;;;;;;;;6218654;23;20020;-88
2023/02/24 05:33:32;;;;;;;26.33;17.35;;;;;;;;;;6221466;23;20035;-90
2023/02/24 05:36:10;;;;;;;28.92;17.25;;;;;;;;;;6186054;23;20103;-90
2023/02/24 05:38:42;;;;;;;32.10;21.77;;;;;;;;;;6213537;23;20017;-90
2023/02/24 05:41:41;;;;;;;30.02;21.65;;;;;;;;;;6184216;23;20012;-90
2023/02/24 05:44:33;;;;;;;34.83;20.38;;;;;;;;;;6181006;23;20456;-90
2023/02/24 05:47:10;;;;;;;29.80;22.17;;;;;;;;;;6222291;23;20033;-90
2023/02/24 05:49:58;;;;;;;33.72;20.58;;;;;;;;;;6214072;23;20013;-90
2023/02/24 05:52:26;;;;;;;;;;;;;;;;;;6220997;23;20013;-89
2023/02/24 05:54:53;;;;;;;35.28;21.55;;;;;;;;;;6212692;23;20244;-89
2023/02/24 05:57:31;;;;;;;28.75;17.85;;;;;;;;;;6212627;23;20016;-90
2023/02/24 06:00:07;;;;;;;34.42;21.70;;;;;;;;;;6197848;23;20017;-89
2023/02/24 06:02:48;;;;;;;28.77;19.35;;;;;;;;;;6190125;23;20020;-88
2023/02/24 06:05:28;;;;;;;31.38;19.08;;;;;;;;;;6225364;23;20016;-89
2023/02/24 06:08:04;;;;;;;30.40;19.95;;;;;;;;;;6192869;23;20016;-89
2023/02/24 06:10:33;;;;;;;27.33;18.33;;;;;;;;;;6222778;23;20317;-89
2023/02/24 06:13:05;;;;;;;28.02;20.13;;;;;;;;;;6176512;23;20029;-89
2023/02/24 06:15:33;;;;;;;27.73;18.63;;;;;;;;;;6213570;23;20016;-89
2023/02/24 06:18:03;;;;;;;28.45;19.73;;;;;;;;;;6156093;23;20035;-89
2023/02/24 06:20:31;;;;;;;27.70;15.10;;;;;;;;;;6203950;23;20020;-89
2023/02/24 06:23:00;;;;;;;27.23;16.50;;;;;;;;;;6204080;23;20024;-89
2023/02/24 06:25:28;;;;;;;31.02;18.73;;;;;;;;;;6176348;23;20031;-89
2023/02/24 06:28:00;;;;;;;24.60;17.25;;;;;;;;;;6204742;23;20043;-88
2023/02/24 06:30:32;;;;;;;28.63;18.27;;;;;;;;;;6214986;23;20012;-89
2023/02/24 06:33:06;;;;;;;26.88;18.92;;;;;;;;;;6215027;23;20019;-90
2023/02/24 06:35:59;;;;;;;27.65;19.33;;;;;;;;;;6213346;23;20043;-89
2023/02/24 06:39:03;;;;;;;32.20;18.13;;;;;;;;;;6156422;23;20027;-90
2023/02/24 06:41:32;;;;;;;30.17;20.48;;;;;;;;;;6205241;23;20021;-89
2023/02/24 06:44:00;;;;;;;26.35;19.42;;;;;;;;;;6203620;23;20340;-89
2023/02/24 09:00:47;;;;;;;35.75;20.98;;;;;;;;;;6212656;22;20031;-90
2023/02/24 09:03:26;;;;;;;36.45;21.08;;;;;;;;;;6189592;23;20008;-91
2023/02/24 09:05:59;;;;;;;37.22;20.20;;;;;;;;;;6174475;23;20016;-89
2023/02/24 09:08:32;;;;;;;35.38;23.77;;;;;;;;;;6202371;23;20008;-88
2023/02/24 09:11:06;;;;;;;40.28;21.48;;;;;;;;;;6195037;23;20017;-89
2023/02/24 09:13:35;;;;;;;30.45;20.83;;;;;;;;;;6173988;23;20021;-88
2023/02/24 09:16:04;;;;;;;35.50;20.95;;;;;;;;;;6210745;23;20517;-89
2023/02/24 09:18:38;;;;;;;35.92;20.20;;;;;;;;;;6217887;23;20031;-88
2023/02/24 09:22:04;;;;;;;34.92;20.13;;;;;;;;;;6179293;23;20020;-90
2023/02/24 09:24:08;;;;;;;35.22;21.48;;;;;;;;;;6167387;23;20035;-89
2023/02/24 09:26:43;;;;;;;39.45;20.38;;;;;;;;;;6204275;23;20027;-88
2023/02/24 09:29:32;;;;;;;30.35;19.33;;;;;;;;;;6168311;23;20023;-89
2023/02/24 09:32:06;;;;;;;33.55;20.35;;;;;;;;;;6226116;23;20023;-87
2023/02/24 09:34:42;;;;;;;34.90;19.55;;;;;;;;;;6198127;23;20035;-88
2023/02/24 09:37:23;;;;;;;;;;;;;;;;;;6155512;23;20019;-88
2023/02/24 09:42:46;;;;;;;36.38;20.58;;;;;;;;;;6160907;23;20020;-88
2023/02/24 09:45:18;;;;;;;37.25;19.88;;;;;;;;;;6216074;23;20157;-90
2023/02/24 09:47:56;;;;;;;27.15;17.00;;;;;;;;;;6161857;23;20021;-88
2023/02/24 09:50:44;;;;;;;31.30;18.90;;;;;;;;;;6186311;23;20016;-87
2023/02/24 09:53:16;;;;;;;32.88;18.08;;;;;;;;;;6186441;23;20020;-90
2023/02/24 09:56:02;;;;;;;34.58;16.73;;;;;;;;;;6186958;23;20013;-88
2023/02/24 09:58:38;;;;;;;25.35;14.50;;;;;;;;;;6223864;23;20020;-88
2023/02/24 10:01:29;;;;;;;23.13;15.80;;;;;;;;;;6189625;23;20023;-88
2023/02/24 10:04:06;;;;;;;28.95;16.05;;;;;;;;;;6191845;23;20021;-89
2023/02/24 10:06:39;;;;;;;27.70;17.60;;;;;;;;;;6161416;23;20021;-88
2023/02/24 10:09:12;;;;;;;29.65;15.70;;;;;;;;;;6161530;23;20024;-90
2023/02/24 10:11:52;;;;;;;29.75;15.57;;;;;;;;;;6223435;23;20024;-89
2023/02/24 10:14:24;;;;;;;24.05;14.77;;;;;;;;;;6160560;23;20017;-88
2023/02/24 10:19:35;;;;;;;24.15;14.25;;;;;;;;;;6159158;23;20012;-91
2023/02/24 10:22:07;;;;;;;31.63;16.67;;;;;;;;;;6186886;23;20016;-90
2023/02/24 10:24:40;;;;;;;27.02;16.77;;;;;;;;;;6189482;23;20013;-90
2023/02/24 10:27:12;;;;;;;22.63;14.20;;;;;;;;;;6220864;23;20017;-88
2023/02/24 10:29:59;;;;;;;21.48;13.65;;;;;;;;;;6160957;23;20024;-89
2023/02/24 10:32:33;;;;;;;23.90;14.95;;;;;;;;;;6160410;23;20025;-89
2023/02/24 10:35:02;;;;;;;;;;;;;;;;;;6162842;23;20016;-90
2023/02/24 10:37:29;;;;;;;23.73;14.90;;;;;;;;;;6162622;23;19916;-89
2023/02/24 10:39:58;;;;;;;22.48;16.73;;;;;;;;;;6186797;23;20241;-90
2023/02/24 10:42:30;;;;;;;25.45;16.77;;;;;;;;;;6160836;23;20012;-89
2023/02/24 10:45:11;;;;;;;25.52;18.55;;;;;;;;;;6162737;23;20023;-90
2023/02/24 10:47:43;;;;;;;24.60;15.57;;;;;;;;;;6197321;23;20031;-90
2023/02/24 10:50:23;;;;;;;26.48;15.05;;;;;;;;;;6136924;23;20024;-88
2023/02/24 10:56:00;;;;;;;27.60;18.83;;;;;;;;;;6161132;23;20537;-89
2023/02/24 10:58:43;;;;;;;33.83;20.08;;;;;;;;;;6185888;23;20032;-89
2023/02/24 11:01:17;;;;;;;29.40;16.67;;;;;;;;;;6160594;23;20013;-89
2023/02/24 11:04:00;;;;;;;26.80;17.58;;;;;;;;;;6160174;23;20032;-89
2023/02/24 11:06:51;;;;;;;33.33;17.77;;;;;;;;;;6162175;23;20020;-89
2023/02/24 11:09:34;;;;;;;26.35;18.42;;;;;;;;;;6160889;23;20020;-90
2023/02/24 11:17:50;;;;;;;29.30;17.73;;;;;;;;;;6200035;23;20016;-89
2023/02/24 11:20:30;;;;;;;26.52;16.90;;;;;;;;;;6190180;23;20019;-89
2023/02/24 11:23:03;;;;;;;27.67;18.13;;;;;;;;;;6166134;23;20017;-89
2023/02/24 11:25:35;;;;;;;31.15;20.77;;;;;;;;;;6201762;23;19996;-88
2023/02/24 11:28:04;;;;;;;30.02;18.58;;;;;;;;;;6165508;23;20017;-89
2023/02/24 11:30:40;;;;;;;28.15;18.25;;;;;;;;;;6168058;23;20017;-89
2023/02/24 11:33:26;;;;;;;28.23;16.38;;;;;;;;;;6194431;23;20013;-88
2023/02/24 11:36:00;;;;;;;32.45;17.75;;;;;;;;;;6168345;23;20016;-90
2023/02/24 11:38:38;;;;;;;30.38;18.33;;;;;;;;;;6196613;23;20024;-89
2023/02/24 11:41:17;;;;;;;33.70;15.85;;;;;;;;;;6170132;23;20024;-89
2023/02/24 11:43:54;;;;;;;36.15;19.65;;;;;;;;;;6193167;23;20013;-89
2023/02/24 11:46:33;;;;;;;37.53;19.90;;;;;;;;;;6153214;23;20028;-89
2023/02/24 11:49:03;;;;;;;26.58;17.65;;;;;;;;;;6211014;23;20013;-89
2023/02/24 11:51:32;;;;;;;30.13;20.27;;;;;;;;;;6179126;23;20021;-90
2023/02/24 11:54:05;;;;;;;25.33;14.85;;;;;;;;;;6210501;23;20013;-88
2023/02/24 11:56:36;;;;;;;27.67;16.05;;;;;;;;;;6184682;23;20020;-90
2023/02/24 11:59:06;;;;;;;25.35;15.98;;;;;;;;;;6214497;23;20013;-90
2023/02/24 12:01:41;;;;;;;26.17;16.58;;;;;;;;;;6242083;23;19996;-90
2023/02/24 12:04:13;;;;;;;26.63;16.02;;;;;;;;;;6168212;23;20035;-89
2023/02/24 12:06:45;;;;;;;25.40;16.35;;;;;;;;;;6200600;23;20017;-89
2023/02/24 12:09:18;;;;;;;24.08;14.63;;;;;;;;;;6196993;23;20017;-90
2023/02/24 12:11:52;;;;;;;33.17;15.50;;;;;;;;;;6207092;23;20032;-91
2023/02/24 12:14:28;;;;;;;24.25;13.52;;;;;;;;;;6174682;23;20363;-89
2023/02/24 12:17:02;;;;;;;28.00;16.67;;;;;;;;;;6175663;23;20035;-91
2023/02/24 12:19:39;;;;;;;22.00;15.18;;;;;;;;;;6228384;23;20023;-92
2023/02/24 12:22:12;;;;;;;22.45;15.38;;;;;;;;;;6175516;23;20021;-91
2023/02/24 12:24:46;;;;;;;25.10;15.57;;;;;;;;;;6174141;23;20035;-89
2023/02/24 12:27:23;;;;;;;21.48;13.82;;;;;;;;;;6164422;23;20067;-89
2023/02/24 12:30:05;;;;;;;22.17;12.10;;;;;;;;;;6171025;23;20197;-89
2023/02/24 12:32:48;;;;;;;19.05;12.65;;;;;;;;;;6195861;23;20043;-89
2023/02/24 12:35:21;;;;;;;18.35;11.07;;;;;;;;;;6171771;23;20016;-91
2023/02/24 12:37:59;;;;;;;23.10;13.10;;;;;;;;;;6194497;23;20013;-89
2023/02/24 12:40:40;;;;;;;21.67;12.88;;;;;;;;;;6177730;23;20013;-91
2023/02/24 12:43:16;;;;;;;19.65;11.52;;;;;;;;;;6210740;23;20092;-90
2023/02/24 12:45:52;;;;;;;26.77;13.25;;;;;;;;;;6178879;23;20020;-89
2023/02/24 12:48:37;;;;;;;21.50;11.35;;;;;;;;;;6209606;23;20020;-91
2023/02/24 12:51:09;;;;;;;23.42;14.00;;;;;;;;;;6198396;23;20017;-90
2023/02/24 12:53:41;;;;;;;24.40;13.32;;;;;;;;;;6200092;23;20060;-90
2023/02/24 12:56:15;;;;;;;19.55;11.00;;;;;;;;;;6211445;23;20019;-89
2023/02/24 12:58:45;;;;;;;24.60;13.18;;;;;;;;;;6232152;23;20009;-90
2023/02/24 13:01:21;;;;;;;24.83;14.88;;;;;;;;;;6167890;23;20012;-89
2023/02/24 13:04:12;;;;;;;22.65;14.32;;;;;;;;;;6170090;23;20039;-90
2023/02/24 13:07:01;;;;;;;26.27;14.15;;;;;;;;;;6173965;23;20027;-92
2023/02/24 13:09:34;;;;;;;24.25;14.05;;;;;;;;;;6209292;23;20019;-88
2023/02/24 13:12:12;;;;;;;22.38;13.80;;;;;;;;;;6174650;23;20019;-90
2023/02/24 13:14:42;;;;;;;24.23;14.13;;;;;;;;;;6167972;23;20016;-89
2023/02/24 13:17:20;;;;;;;21.75;13.63;;;;;;;;;;6217982;23;20017;-91
2023/02/24 13:19:50;;;;;;;21.77;13.45;;;;;;;;;;6166373;23;20040;-90
2023/02/24 13:22:27;;;;;;;24.02;14.13;;;;;;;;;;6191012;23;20028;-91
2023/02/24 13:24:59;;;;;;;18.83;11.82;;;;;;;;;;6190058;23;20023;-91
2023/02/24 13:27:34;;;;;;;21.92;12.18;;;;;;;;;;6166265;23;20494;-88
2023/02/24 13:30:07;;;;;;;21.55;12.63;;;;;;;;;;6227368;23;20027;-89
2023/02/24 13:32:39;;;;;;;24.90;12.38;;;;;;;;;;6190709;23;20416;-88
2023/02/24 13:35:34;;;;;;;22.88;12.68;;;;;;;;;;6164864;23;20013;-89
2023/02/24 13:38:10;;;;;;;20.45;11.88;;;;;;;;;;6188391;23;20016;-88
2023/02/24 13:40:38;;;;;;;19.08;11.68;;;;;;;;;;6163842;23;20017;-89
2023/02/24 13:43:22;;;;;;;21.40;12.50;;;;;;;;;;6191947;23;20027;-91
2023/02/24 13:45:57;;;;;;;19.17;12.70;;;;;;;;;;6200508;23;20019;-89
2023/02/24 13:48:41;;;;;;;22.83;11.80;;;;;;;;;;6165467;23;20017;-89
2023/02/24 13:51:54;;;;;;;24.23;13.25;;;;;;;;;;6166499;23;20016;-88
2023/02/24 13:55:01;;;;;;;21.08;13.30;;;;;;;;;;6193337;23;20016;-91
2023/02/24 13:57:56;;;;;;;19.75;12.88;;;;;;;;;;6137004;23;20487;-88
2023/02/24 14:00:33;;;;;;;21.33;11.95;;;;;;;;;;6171755;23;20017;-90
2023/02/24 14:03:10;;;;;;;20.20;12.55;;;;;;;;;;6189905;23;20047;-90
2023/02/24 14:05:41;;;;;;;19.23;12.38;;;;;;;;;;6199849;23;20013;-90
2023/02/24 14:08:14;;;;;;;;;;;;;;;;;;6226030;23;20348;-89
2023/02/24 14:10:44;;;;;;;19.73;12.93;;;;;;;;;;6189180;23;19916;-89
2023/02/24 14:13:17;;;;;;;18.63;11.63;;;;;;;;;;6164451;23;20012;-89
2023/02/24 14:15:47;;;;;;;26.30;11.95;;;;;;;;;;6187940;23;20017;-89
2023/02/24 14:18:20;;;;;;;21.60;11.73;;;;;;;;;;6187181;23;20013;-87
2023/02/24 14:20:47;;;;;;;21.63;11.55;;;;;;;;;;6163987;23;20017;-87
2023/02/24 14:23:22;;;;;;;15.50;10.13;;;;;;;;;;6188095;23;20013;-88
2023/02/24 14:25:57;;;;;;;18.15;12.15;;;;;;;;;;6188596;23;20573;-88
2023/02/24 14:28:29;;;;;;;22.13;11.07;;;;;;;;;;6163902;23;20020;-90
2023/02/24 14:30:59;;;;;;;20.67;11.97;;;;;;;;;;6189779;23;20025;-90
2023/02/24 14:33:30;;;;;;;17.60;10.45;;;;;;;;;;6164800;23;20019;-88
2023/02/24 14:35:58;;;;;;;16.20;10.27;;;;;;;;;;6164965;23;20019;-88
2023/02/24 14:38:34;;;;;;;18.17;10.88;;;;;;;;;;6163552;23;20024;-90
2023/02/24 14:41:02;;;;;;;19.60;11.90;;;;;;;;;;6160975;23;20017;-88
2023/02/24 14:43:32;;;;;;;18.90;12.07;;;;;;;;;;6162952;23;20008;-88
2023/02/24 14:46:05;;;;;;;17.75;11.82;;;;;;;;;;6160993;23;20016;-90
2023/02/24 14:48:37;;;;;;;16.83;11.55;;;;;;;;;;6166438;23;20017;-89
2023/02/24 14:51:08;;;;;;;16.63;10.38;;;;;;;;;;6189985;23;20037;-88
2023/02/24 14:53:43;;;;;;;17.65;11.23;;;;;;;;;;6226856;23;20013;-90
2023/02/24 14:56:12;;;;;;;19.55;11.27;;;;;;;;;;6198397;23;20029;-87
2023/02/24 16:16:16;;;;;;;19.88;13.68;;;;;;;;;;6183476;23;20016;-88
2023/02/24 17:43:36;;;;;;;8.93;5.63;;;;;;;;;;6207377;22;20366;-92
2023/02/24 17:46:04;;;;;;;13.40;6.47;;;;;;;;;;6158469;23;20021;-92
2023/02/24 17:48:32;;;;;;;8.55;6.45;;;;;;;;;;6183898;23;20021;-92
2023/02/24 17:59:40;;;;;;;11.38;6.40;;;;;;;;;;5822498;24;20026;-93
2023/02/24 18:06:23;;;;;;;10.48;6.18;;;;;;;;;;6038632;23;20326;-92
2023/02/24 18:09:09;;;;;;;8.80;5.63;;;;;;;;;;6191979;23;20016;-92
2023/02/24 18:11:46;;;;;;;8.90;5.47;;;;;;;;;;6160073;23;20027;-93
2023/02/24 18:14:28;;;;;;;;;;;;;;;;;;;;;
2023/02/24 18:17:06;;;;;;;7.43;6.18;;;;;;;;;;6162485;23;20020;-93
2023/02/24 18:20:08;;;;;;;;;;;;;;;;;;;;;
2023/02/24 18:23:06;;;;;;;7.45;6.13;;;;;;;;;;6148044;23;20023;-92
2023/02/24 18:25:53;;;;;;;12.65;6.07;;;;;;;;;;6211392;23;20017;-92
2023/02/24 18:28:39;;;;;;;;;;;;;;;;;;;;;
2023/02/24 18:31:47;;;;;;;8.10;5.28;;;;;;;;;;6182014;23;20021;-93
2023/02/24 18:35:09;;;;;;;;;;;;;;;;;;;;;
2023/02/24 19:44:09;;;;;;;1.80;1.40;;;;;;;;;;6209777;23;20020;-90
2023/02/24 19:48:09;;;;;;;1.80;1.15;;;;;;;;;;6160033;23;20024;-92
2023/02/24 19:51:10;;;;;;;1.98;1.38;;;;;;;;;;6157342;23;20021;-92
2023/02/24 19:57:53;;;;;;;2.55;1.55;;;;;;;;;;6156893;23;20024;-92
2023/02/24 20:04:49;;;;;;;3.58;1.88;;;;;;;;;;5972385;23;20026;-92
2023/02/24 20:11:06;;;;;;;3.17;2.17;;;;;;;;;;6146961;23;20022;-93
2023/02/24 20:14:03;;;;;;;4.47;2.42;;;;;;;;;;6087944;23;20030;-92
2023/02/24 20:17:06;;;;;;;2.17;1.38;;;;;;;;;;6081843;23;20025;-92
2023/02/24 20:20:11;;;;;;;2.85;2.55;;;;;;;;;;6089303;23;20018;-92
2023/02/24 20:23:54;;;;;;;4.55;2.90;;;;;;;;;;6111859;23;20036;-93
2023/02/24 20:27:41;;;;;;;;;;;;;;;;;;;;;
2023/02/24 21:01:05;;;;;;;5.78;4.47;;;;;;;;;;6005585;23;20026;-88
2023/02/24 21:03:33;;;;;;;8.43;4.72;;;;;;;;;;6030556;23;20023;-88
2023/02/24 21:06:00;;;;;;;5.20;4.22;;;;;;;;;;5981189;23;20444;-88
2023/02/24 21:08:27;;;;;;;6.53;4.20;;;;;;;;;;6030984;23;20023;-88
2023/02/24 21:10:55;;;;;;;6.22;5.00;;;;;;;;;;5982089;23;20023;-88
2023/02/24 21:13:22;;;;;;;6.38;4.97;;;;;;;;;;6039548;23;20015;-88
2023/02/24 21:15:51;;;;;;;8.80;5.82;;;;;;;;;;6005520;23;20027;-88
2023/02/24 21:18:20;;;;;;;10.43;6.35;;;;;;;;;;5983048;23;20027;-88
2023/02/24 21:20:48;;;;;;;6.38;4.68;;;;;;;;;;5981852;23;20023;-88
2023/02/24 21:23:15;;;;;;;5.45;4.95;;;;;;;;;;6004970;23;20034;-88
2023/02/24 21:25:43;;;;;;;7.00;5.55;;;;;;;;;;6004090;23;20023;-88
2023/02/24 21:28:10;;;;;;;6.40;4.38;;;;;;;;;;6005529;23;20050;-88
2023/02/24 21:30:41;;;;;;;5.40;4.78;;;;;;;;;;6003191;23;20030;-87
2023/02/24 21:33:08;;;;;;;7.40;4.88;;;;;;;;;;5982121;23;20023;-87
2023/02/24 21:35:37;;;;;;;8.20;5.97;;;;;;;;;;5980821;23;20023;-88
2023/02/24 21:38:05;;;;;;;6.30;4.95;;;;;;;;;;6016306;23;20358;-88
2023/02/24 21:40:32;;;;;;;9.38;6.07;;;;;;;;;;5980025;23;20026;-87
2023/02/24 21:42:59;;;;;;;10.20;6.28;;;;;;;;;;6004486;23;20023;-88
2023/02/24 21:45:27;;;;;;;8.57;5.63;;;;;;;;;;6028833;23;20019;-88
2023/02/24 21:47:55;;;;;;;7.88;6.15;;;;;;;;;;6004202;23;20473;-88
2023/02/24 21:50:23;;;;;;;7.82;4.80;;;;;;;;;;6003076;23;20027;-88
2023/02/24 21:52:51;;;;;;;9.40;5.95;;;;;;;;;;6033314;23;20027;-88
2023/02/24 21:55:19;;;;;;;9.75;7.07;;;;;;;;;;6012137;23;20467;-87
2023/02/24 21:57:46;;;;;;;6.93;6.22;;;;;;;;;;6021801;23;20019;-87
2023/02/24 22:00:18;;;;;;;9.13;6.47;;;;;;;;;;5989007;23;20020;-88
2023/02/24 22:02:48;;;;;;;9.32;5.07;;;;;;;;;;6011815;23;20023;-88
2023/02/24 22:05:17;;;;;;;9.38;6.03;;;;;;;;;;6038028;23;20019;-87
2023/02/24 22:07:45;;;;;;;7.95;5.63;;;;;;;;;;6008532;23;20531;-87
2023/02/24 22:10:14;;;;;;;7.35;5.35;;;;;;;;;;6028497;23;20023;-88
2023/02/24 22:12:42;;;;;;;10.60;6.03;;;;;;;;;;6003487;23;20027;-88
2023/02/24 22:15:11;;;;;;;7.63;5.32;;;;;;;;;;5980081;23;20023;-87
2023/02/24 22:17:39;;;;;;;11.02;6.07;;;;;;;;;;6029274;23;20026;-87
2023/02/24 22:20:08;;;;;;;9.70;5.75;;;;;;;;;;6005648;23;20016;-87
2023/02/24 22:22:36;;;;;;;8.50;6.60;;;;;;;;;;6038346;23;20023;-87
2023/02/24 22:25:05;;;;;;;9.23;6.82;;;;;;;;;;6003617;23;20023;-88
2023/02/24 22:27:34;;;;;;;13.77;6.20;;;;;;;;;;6028793;23;20022;-87
2023/02/24 22:30:01;;;;;;;5.82;4.95;;;;;;;;;;6028061;23;20023;-87
2023/02/24 22:32:29;;;;;;;9.55;5.60;;;;;;;;;;5981265;23;20019;-87
2023/02/24 22:34:56;;;;;;;6.30;5.03;;;;;;;;;;6010346;23;20019;-87
2023/02/24 22:37:23;;;;;;;10.88;6.00;;;;;;;;;;5986655;23;20026;-86
2023/02/24 22:39:51;;;;;;;7.78;5.88;;;;;;;;;;6033688;23;20015;-89